Time;durP1;ratioP1;P1;durP2;ratioP2;P2;SDS_P1;SDS_P2;PMS_P1;PMS_P2;Temp;Humidity;BMP_temperature;BMP_pressure;BME280_temperature;BME280_humidity;BME280_pressure;Samples;Min_cycle;Max_cycle;Signal;HPM_P1;HPM_P2
2022/02/24 00:00:43;;;;;;;26.98;12.98;;;2.30;99.90;;;;;;5060073;28;20542;-46
2022/02/24 00:03:10;;;;;;;20.58;11.20;;;2.30;99.90;;;;;;5060383;28;20214;-48
2022/02/24 00:05:38;;;;;;;20.30;13.57;;;2.20;99.90;;;;;;5060419;28;20295;-49
2022/02/24 00:08:05;;;;;;;21.17;12.27;;;2.30;99.90;;;;;;5060276;28;20207;-53
2022/02/24 00:10:32;;;;;;;25.45;13.45;;;2.30;99.90;;;;;;5059509;28;20228;-46
2022/02/24 00:13:00;;;;;;;19.10;9.93;;;2.40;99.90;;;;;;5060279;28;20223;-50
2022/02/24 00:15:27;;;;;;;20.10;13.00;;;2.40;99.90;;;;;;5060037;28;20301;-53
2022/02/24 00:17:54;;;;;;;32.15;16.05;;;2.40;99.90;;;;;;5060189;28;20195;-53
2022/02/24 00:20:22;;;;;;;25.75;12.95;;;2.30;99.90;;;;;;5058904;28;20200;-49
2022/02/24 00:22:49;;;;;;;23.65;12.45;;;2.20;99.90;;;;;;5059724;28;20200;-50
2022/02/24 00:25:16;;;;;;;21.20;12.07;;;2.30;99.90;;;;;;5059790;28;20204;-51
2022/02/24 00:27:46;;;;;;;21.33;12.95;;;2.20;99.90;;;;;;5059976;28;20382;-49
2022/02/24 00:30:13;;;;;;;32.72;12.40;;;2.20;99.90;;;;;;5059184;28;20395;-48
2022/02/24 00:32:40;;;;;;;25.52;13.85;;;2.30;99.90;;;;;;5058985;28;20223;-46
2022/02/24 00:35:08;;;;;;;22.15;10.95;;;2.20;99.90;;;;;;5059777;28;20196;-52
2022/02/24 00:37:35;;;;;;;21.30;11.35;;;2.30;99.90;;;;;;5059040;28;20234;-49
2022/02/24 00:40:04;;;;;;;22.17;12.13;;;2.30;99.90;;;;;;5059742;28;20430;-48
2022/02/24 00:42:31;;;;;;;22.77;11.10;;;2.30;99.90;;;;;;5059440;28;20211;-46
2022/02/24 00:44:58;;;;;;;20.38;12.30;;;2.20;99.90;;;;;;5059535;28;20438;-49
2022/02/24 00:47:25;;;;;;;17.73;10.63;;;2.20;99.90;;;;;;5059486;28;20489;-45
2022/02/24 00:49:52;;;;;;;18.60;10.45;;;2.20;99.90;;;;;;5059224;28;20245;-49
2022/02/24 00:52:20;;;;;;;14.80;9.75;;;2.30;99.90;;;;;;5059076;28;20293;-47
2022/02/24 00:54:48;;;;;;;21.48;10.02;;;2.30;99.90;;;;;;5059394;28;20234;-51
2022/02/24 00:57:16;;;;;;;21.33;12.35;;;2.10;99.90;;;;;;5059479;28;20204;-46
2022/02/24 00:59:43;;;;;;;29.98;11.07;;;2.00;99.90;;;;;;5059289;28;20230;-47
2022/02/24 01:02:11;;;;;;;13.40;10.35;;;2.00;99.90;;;;;;5059371;28;20236;-48
2022/02/24 01:04:39;;;;;;;20.70;8.95;;;2.00;99.90;;;;;;5059555;28;20199;-45
2022/02/24 01:07:06;;;;;;;23.10;11.55;;;1.90;99.90;;;;;;5059189;28;20203;-48
2022/02/24 01:09:33;;;;;;;19.40;10.05;;;1.90;99.90;;;;;;5059365;28;20196;-45
2022/02/24 01:12:00;;;;;;;19.70;9.95;;;1.90;99.90;;;;;;5058898;28;20640;-46
2022/02/24 01:14:27;;;;;;;18.92;10.73;;;1.80;99.90;;;;;;5059023;28;20326;-45
2022/02/24 01:16:55;;;;;;;26.15;10.02;;;1.90;99.90;;;;;;5059436;28;20196;-49
2022/02/24 01:19:22;;;;;;;18.40;9.60;;;1.90;99.90;;;;;;5058866;28;20202;-51
2022/02/24 01:21:49;;;;;;;21.40;9.70;;;1.80;99.90;;;;;;5059231;28;20418;-46
2022/02/24 01:24:16;;;;;;;18.65;8.32;;;1.90;99.90;;;;;;5041208;28;20203;-50
2022/02/24 01:26:43;;;;;;;23.08;9.95;;;2.00;99.90;;;;;;5059054;28;20507;-50
2022/02/24 01:29:11;;;;;;;19.58;12.00;;;2.00;99.90;;;;;;5058916;28;20253;-49
2022/02/24 01:31:39;;;;;;;17.55;9.00;;;2.00;99.90;;;;;;5059399;28;20219;-49
2022/02/24 01:34:06;;;;;;;14.35;9.15;;;2.00;99.90;;;;;;5058558;28;20231;-45
2022/02/24 01:36:33;;;;;;;25.45;10.73;;;1.90;99.90;;;;;;5059186;28;20250;-52
2022/02/24 01:39:00;;;;;;;20.08;10.05;;;2.00;99.90;;;;;;5059503;28;20545;-46
2022/02/24 01:41:28;;;;;;;24.83;11.02;;;1.80;99.90;;;;;;5058421;28;20407;-48
2022/02/24 01:43:55;;;;;;;21.35;8.82;;;1.80;99.90;;;;;;5058935;28;20219;-47
2022/02/24 01:46:22;;;;;;;11.07;8.20;;;1.80;99.90;;;;;;5058194;28;20200;-46
2022/02/24 01:48:50;;;;;;;15.38;7.15;;;1.80;99.90;;;;;;5060621;28;20219;-45
2022/02/24 01:51:18;;;;;;;15.63;10.30;;;1.70;99.90;;;;;;5062356;28;20273;-48
2022/02/24 01:53:46;;;;;;;12.55;7.03;;;1.80;99.90;;;;;;5045077;28;20246;-49
2022/02/24 01:56:13;;;;;;;12.52;8.55;;;1.80;99.90;;;;;;5062665;28;20204;-52
2022/02/24 01:58:40;;;;;;;12.35;7.15;;;1.80;99.90;;;;;;5062607;28;20218;-50
2022/02/24 02:01:07;;;;;;;16.85;9.57;;;1.90;99.90;;;;;;5062504;28;20268;-53
2022/02/24 02:03:34;;;;;;;24.40;12.10;;;1.80;99.90;;;;;;5062658;28;20513;-45
2022/02/24 02:06:01;;;;;;;17.13;9.52;;;1.80;99.90;;;;;;5064598;28;20221;-52
2022/02/24 02:08:28;;;;;;;19.85;10.15;;;1.80;99.90;;;;;;5062583;28;20199;-48
2022/02/24 02:10:56;;;;;;;15.43;8.32;;;1.70;99.90;;;;;;5062408;28;20552;-46
2022/02/24 02:13:23;;;;;;;20.30;9.68;;;1.60;99.90;;;;;;5062207;28;20223;-47
2022/02/24 02:15:53;;;;;;;19.35;10.20;;;1.60;99.90;;;;;;5062784;28;20287;-45
2022/02/24 02:18:21;;;;;;;23.63;9.30;;;1.60;99.90;;;;;;5061730;28;20268;-48
2022/02/24 02:20:48;;;;;;;20.05;11.10;;;1.60;99.90;;;;;;5062163;28;20216;-48
2022/02/24 02:23:15;;;;;;;13.13;7.43;;;1.60;99.90;;;;;;5063595;28;20321;-49
2022/02/24 02:25:44;;;;;;;24.02;9.75;;;1.60;99.90;;;;;;5064109;28;20218;-53
2022/02/24 02:28:15;;;;;;;14.70;9.02;;;1.60;99.90;;;;;;5063598;28;20390;-44
2022/02/24 02:30:43;;;;;;;16.02;9.00;;;1.70;99.90;;;;;;5043921;28;20228;-47
2022/02/24 02:33:11;;;;;;;35.38;15.52;;;1.60;99.90;;;;;;5062007;28;20318;-45
2022/02/24 02:35:39;;;;;;;18.02;9.32;;;1.70;99.90;;;;;;5061721;28;20203;-45
2022/02/24 02:38:06;;;;;;;22.48;9.25;;;1.70;99.90;;;;;;5062102;28;20242;-55
2022/02/24 02:40:37;;;;;;;18.88;8.63;;;1.60;99.90;;;;;;5061519;28;20216;-49
2022/02/24 02:43:09;;;;;;;26.17;15.48;;;1.50;99.90;;;;;;5061827;28;20510;-46
2022/02/24 02:45:38;;;;;;;17.05;9.93;;;1.50;99.90;;;;;;5061686;28;20207;-48
2022/02/24 02:48:06;;;;;;;26.77;13.38;;;1.40;99.90;;;;;;5061675;28;20275;-44
2022/02/24 02:50:33;;;;;;;18.33;10.55;;;1.50;99.90;;;;;;5061618;28;20288;-50
2022/02/24 02:53:05;;;;;;;27.40;11.50;;;1.40;99.90;;;;;;5061508;28;20238;-49
2022/02/24 02:55:33;;;;;;;26.75;11.52;;;1.30;99.90;;;;;;5061621;28;20195;-48
2022/02/24 02:58:00;;;;;;;20.33;10.38;;;1.20;99.90;;;;;;5061603;28;20187;-51
2022/02/24 03:00:28;;;;;;;27.35;12.00;;;1.20;99.90;;;;;;5060657;28;20407;-46
2022/02/24 03:02:55;;;;;;;17.40;9.00;;;1.10;99.90;;;;;;5061766;28;20192;-49
2022/02/24 03:05:23;;;;;;;15.27;9.45;;;1.20;99.90;;;;;;5061636;28;20474;-48
2022/02/24 03:07:51;;;;;;;23.15;11.68;;;1.30;99.90;;;;;;5061334;28;20199;-50
2022/02/24 03:10:18;;;;;;;16.80;8.85;;;1.20;99.90;;;;;;5060924;28;20257;-49
2022/02/24 03:12:48;;;;;;;19.30;10.75;;;1.10;99.90;;;;;;5061202;28;20257;-47
2022/02/24 03:15:17;;;;;;;18.60;10.90;;;1.10;99.90;;;;;;5061089;28;20206;-46
2022/02/24 03:17:46;;;;;;;32.38;16.42;;;1.20;99.90;;;;;;5061042;28;20249;-47
2022/02/24 03:20:14;;;;;;;31.13;14.70;;;1.20;99.90;;;;;;5061193;28;20195;-44
2022/02/24 03:22:42;;;;;;;24.80;11.80;;;1.20;99.90;;;;;;5061364;28;20242;-51
2022/02/24 03:25:10;;;;;;;19.63;10.75;;;1.10;99.90;;;;;;5061608;28;20212;-44
2022/02/24 03:27:37;;;;;;;24.33;11.07;;;1.10;99.90;;;;;;5060604;28;20207;-48
2022/02/24 03:30:06;;;;;;;22.23;9.85;;;1.10;99.90;;;;;;5061429;28;20195;-50
2022/02/24 03:32:33;;;;;;;17.40;13.85;;;1.20;99.90;;;;;;5061243;28;20223;-45
2022/02/24 03:35:00;;;;;;;18.05;8.55;;;1.10;99.90;;;;;;5062410;28;20524;-47
2022/02/24 03:37:28;;;;;;;37.88;13.45;;;1.20;99.90;;;;;;5061100;28;20428;-53
2022/02/24 03:39:56;;;;;;;24.08;13.75;;;1.20;99.90;;;;;;5061744;28;20337;-50
2022/02/24 03:42:24;;;;;;;32.42;16.98;;;1.30;99.90;;;;;;5060924;28;20276;-45
2022/02/24 03:44:52;;;;;;;28.98;13.07;;;1.20;99.90;;;;;;5061060;28;20206;-45
2022/02/24 03:47:20;;;;;;;17.63;9.13;;;1.20;99.90;;;;;;5060890;28;20199;-46
2022/02/24 03:49:47;;;;;;;17.92;10.38;;;1.10;99.90;;;;;;5060225;28;20275;-48
2022/02/24 03:52:16;;;;;;;18.30;9.98;;;1.20;99.90;;;;;;5060724;28;20381;-48
2022/02/24 03:54:44;;;;;;;25.00;11.38;;;1.20;99.90;;;;;;5060139;28;20234;-48
2022/02/24 03:57:17;;;;;;;17.50;10.57;;;1.10;99.90;;;;;;5060797;28;20618;-48
2022/02/24 03:59:44;;;;;;;18.67;8.68;;;1.10;99.90;;;;;;5049996;28;20200;-48
2022/02/24 04:02:13;;;;;;;12.50;7.00;;;1.20;99.90;;;;;;5052306;28;20243;-48
2022/02/24 04:04:42;;;;;;;14.02;9.07;;;1.40;99.90;;;;;;5059859;28;20301;-51
2022/02/24 04:07:10;;;;;;;9.13;5.10;;;1.50;99.90;;;;;;5060209;28;20271;-46
2022/02/24 04:09:38;;;;;;;9.75;5.15;;;1.70;99.90;;;;;;5059914;28;20223;-51
2022/02/24 04:12:15;;;;;;;12.23;4.93;;;1.80;99.90;;;;;;5059774;28;20219;-48
2022/02/24 04:14:45;;;;;;;18.42;6.57;;;1.80;99.90;;;;;;5060358;28;20581;-48
2022/02/24 04:17:13;;;;;;;11.65;6.85;;;1.90;99.90;;;;;;5060060;28;20196;-47
2022/02/24 04:19:41;;;;;;;11.93;7.22;;;2.00;99.90;;;;;;5059971;28;20196;-49
2022/02/24 04:22:09;;;;;;;11.45;6.80;;;1.90;99.90;;;;;;5042090;28;20227;-47
2022/02/24 04:24:36;;;;;;;9.77;6.15;;;1.90;99.90;;;;;;5059846;28;20402;-45
2022/02/24 04:27:04;;;;;;;7.68;5.13;;;1.90;99.90;;;;;;5060311;28;20409;-47
2022/02/24 04:29:32;;;;;;;8.30;4.55;;;1.90;99.90;;;;;;5060487;28;20200;-46
2022/02/24 04:31:59;;;;;;;7.38;4.57;;;1.80;99.90;;;;;;5059824;28;20219;-45
2022/02/24 04:34:27;;;;;;;7.88;4.90;;;1.90;99.90;;;;;;5059390;28;20399;-47
2022/02/24 04:36:54;;;;;;;10.32;3.78;;;2.00;99.90;;;;;;5059825;28;20269;-44
2022/02/24 04:39:21;;;;;;;4.68;4.15;;;2.00;99.90;;;;;;5060081;28;20195;-45
2022/02/24 04:41:50;;;;;;;10.25;5.05;;;1.80;99.90;;;;;;5059436;28;20229;-50
2022/02/24 04:44:18;;;;;;;19.80;6.05;;;1.80;99.90;;;;;;5059481;28;20391;-48
2022/02/24 04:46:45;;;;;;;9.80;5.15;;;1.90;99.90;;;;;;5060159;28;20261;-50
2022/02/24 04:49:14;;;;;;;10.35;6.25;;;1.70;99.90;;;;;;5060017;28;20510;-45
2022/02/24 04:51:41;;;;;;;6.18;4.57;;;1.70;99.90;;;;;;5059519;28;20223;-45
2022/02/24 04:54:09;;;;;;;8.63;5.22;;;1.70;99.90;;;;;;5059609;28;20272;-51
2022/02/24 04:56:37;;;;;;;6.70;4.30;;;1.60;99.90;;;;;;5059061;28;20196;-49
2022/02/24 04:59:04;;;;;;;8.50;5.40;;;1.50;99.90;;;;;;5059555;28;20196;-47
2022/02/24 05:01:31;;;;;;;9.07;5.20;;;1.60;99.90;;;;;;5058172;28;20226;-53
2022/02/24 05:04:03;;;;;;;9.35;6.38;;;1.50;99.90;;;;;;5059314;28;20214;-46
2022/02/24 05:06:31;;;;;;;9.30;5.55;;;1.40;99.90;;;;;;5058971;28;20226;-47
2022/02/24 05:08:59;;;;;;;11.90;5.15;;;1.40;99.90;;;;;;5059217;28;20456;-52
2022/02/24 05:11:25;;;;;;;13.88;6.53;;;1.40;99.90;;;;;;5059359;28;20223;-51
2022/02/24 05:13:52;;;;;;;8.45;5.45;;;1.40;99.90;;;;;;5058962;28;20222;-50
2022/02/24 05:16:22;;;;;;;12.18;5.65;;;1.40;99.90;;;;;;5059710;28;20521;-47
2022/02/24 05:18:49;;;;;;;14.18;5.60;;;1.30;99.90;;;;;;5059178;28;20264;-52
2022/02/24 05:21:17;;;;;;;10.43;6.85;;;1.30;99.90;;;;;;5059306;28;20216;-45
2022/02/24 05:23:44;;;;;;;9.18;5.88;;;1.20;99.90;;;;;;5060077;28;20350;-45
2022/02/24 05:26:11;;;;;;;11.48;6.05;;;1.20;99.90;;;;;;5055088;28;20205;-52
2022/02/24 05:28:39;;;;;;;13.13;7.60;;;1.30;99.90;;;;;;5055013;28;20271;-47
2022/02/24 05:31:06;;;;;;;19.33;8.52;;;1.20;99.90;;;;;;5063373;28;20418;-49
2022/02/24 05:33:34;;;;;;;11.95;6.80;;;1.10;99.90;;;;;;5063212;28;20286;-44
2022/02/24 05:36:03;;;;;;;14.40;9.05;;;1.10;99.90;;;;;;5063288;28;20203;-48
2022/02/24 05:38:31;;;;;;;20.90;7.72;;;1.10;99.90;;;;;;5066685;28;20195;-51
2022/02/24 05:40:58;;;;;;;12.48;7.10;;;0.90;99.90;;;;;;5071902;28;20270;-52
2022/02/24 05:43:26;;;;;;;16.15;7.80;;;0.90;99.90;;;;;;5069951;28;20210;-50
2022/02/24 05:45:55;;;;;;;18.95;8.43;;;0.90;99.90;;;;;;5072460;28;20199;-49
2022/02/24 05:48:26;;;;;;;15.20;9.32;;;0.90;99.90;;;;;;5064192;28;20254;-47
2022/02/24 05:50:53;;;;;;;19.92;8.55;;;0.90;99.90;;;;;;5062275;28;20238;-48
2022/02/24 05:53:20;;;;;;;14.27;8.05;;;0.80;99.90;;;;;;5057426;28;20207;-44
2022/02/24 05:55:48;;;;;;;10.35;7.38;;;0.80;99.90;;;;;;5051188;28;20204;-46
2022/02/24 05:58:21;;;;;;;16.27;9.40;;;0.90;99.90;;;;;;5046301;28;20208;-47
2022/02/24 06:00:48;;;;;;;24.02;10.38;;;0.90;99.90;;;;;;5062158;28;20229;-47
2022/02/24 06:03:16;;;;;;;12.25;7.35;;;0.80;99.90;;;;;;5061876;28;20226;-48
2022/02/24 06:05:44;;;;;;;14.55;6.88;;;0.90;99.90;;;;;;5062528;28;20429;-45
2022/02/24 06:08:12;;;;;;;19.08;9.43;;;1.00;99.90;;;;;;5062236;28;20203;-49
2022/02/24 06:10:39;;;;;;;14.02;10.02;;;1.00;99.90;;;;;;5061932;28;20219;-48
2022/02/24 06:13:06;;;;;;;20.08;11.40;;;0.90;99.90;;;;;;5061996;28;20196;-46
2022/02/24 06:15:34;;;;;;;14.73;8.27;;;0.90;99.90;;;;;;5062071;28;20224;-46
2022/02/24 06:18:08;;;;;;;16.50;9.90;;;1.00;99.90;;;;;;5062979;28;20203;-50
2022/02/24 06:20:36;;;;;;;16.67;9.50;;;1.10;99.90;;;;;;5063154;28;20237;-49
2022/02/24 06:23:03;;;;;;;13.27;7.63;;;1.20;99.90;;;;;;5067610;28;20202;-47
2022/02/24 06:25:31;;;;;;;18.33;8.48;;;1.50;99.90;;;;;;5059859;28;20212;-46
2022/02/24 06:27:58;;;;;;;17.98;11.45;;;2.00;99.90;;;;;;5062455;28;20213;-52
2022/02/24 06:30:26;;;;;;;14.38;9.85;;;2.40;99.90;;;;;;5058390;28;20306;-52
2022/02/24 06:32:55;;;;;;;15.15;8.20;;;2.40;99.90;;;;;;5055704;28;20208;-48
2022/02/24 06:35:22;;;;;;;17.10;7.18;;;2.30;99.90;;;;;;5052794;28;20265;-46
2022/02/24 06:37:49;;;;;;;11.60;6.57;;;2.30;99.90;;;;;;5054022;28;20400;-49
2022/02/24 06:40:16;;;;;;;14.23;6.50;;;2.20;99.90;;;;;;5057811;28;20255;-48
2022/02/24 06:42:44;;;;;;;11.10;5.10;;;2.20;99.90;;;;;;5061060;28;20205;-46
2022/02/24 06:45:11;;;;;;;14.70;7.07;;;2.20;99.90;;;;;;5061768;28;20204;-49
2022/02/24 06:47:39;;;;;;;13.15;5.40;;;2.20;99.90;;;;;;5061168;28;20689;-45
2022/02/24 06:50:07;;;;;;;6.22;4.68;;;2.30;99.90;;;;;;5061505;28;20239;-49
2022/02/24 06:52:36;;;;;;;15.02;6.88;;;2.50;99.90;;;;;;5061366;28;20434;-49
2022/02/24 06:55:06;;;;;;;11.02;4.50;;;2.70;99.90;;;;;;5043745;28;20228;-50
2022/02/24 06:57:46;;;;;;;5.72;4.13;;;2.80;99.90;;;;;;5061571;28;20197;-51
2022/02/24 07:00:15;;;;;;;13.77;7.10;;;3.20;99.90;;;;;;5061391;28;20417;-45
2022/02/24 07:02:43;;;;;;;10.95;4.10;;;3.50;99.90;;;;;;5061116;28;20197;-48
2022/02/24 07:05:11;;;;;;;8.85;4.63;;;3.80;99.90;;;;;;5061762;28;20319;-47
2022/02/24 07:07:38;;;;;;;7.13;3.97;;;4.00;99.90;;;;;;5061243;28;20209;-50
2022/02/24 07:10:10;;;;;;;8.32;3.45;;;4.40;99.90;;;;;;5061594;28;20210;-51
2022/02/24 07:12:38;;;;;;;9.35;3.53;;;4.60;99.90;;;;;;5061315;28;20206;-48
2022/02/24 07:15:07;;;;;;;6.85;4.22;;;4.90;99.90;;;;;;5061007;28;20253;-45
2022/02/24 07:17:45;;;;;;;8.68;3.85;;;5.30;99.90;;;;;;5060871;28;20547;-48
2022/02/24 07:20:15;;;;;;;4.97;2.75;;;5.80;99.90;;;;;;5055156;28;20328;-50
2022/02/24 07:22:43;;;;;;;8.45;3.40;;;6.10;99.90;;;;;;5060758;28;20196;-50
2022/02/24 07:25:12;;;;;;;4.97;3.95;;;6.00;99.90;;;;;;5054006;28;20207;-48
2022/02/24 07:27:40;;;;;;;7.20;4.13;;;6.10;99.90;;;;;;5061194;28;20203;-47
2022/02/24 07:30:11;;;;;;;6.03;3.90;;;6.20;99.90;;;;;;5062649;28;20222;-45
2022/02/24 07:32:39;;;;;;;5.60;2.70;;;6.50;99.90;;;;;;5062594;28;20383;-48
2022/02/24 07:35:07;;;;;;;7.22;3.40;;;6.80;99.90;;;;;;5062793;28;20220;-47
2022/02/24 07:37:35;;;;;;;3.70;2.63;;;7.00;99.90;;;;;;5062346;28;20242;-51
2022/02/24 07:40:04;;;;;;;2.83;2.38;;;7.30;99.90;;;;;;5062743;28;20208;-50
2022/02/24 07:42:34;;;;;;;6.32;2.45;;;7.80;99.90;;;;;;5061794;28;20223;-46
2022/02/24 07:45:04;;;;;;;6.18;2.40;;;8.20;99.90;;;;;;5061454;28;20407;-44
2022/02/24 07:47:31;;;;;;;7.65;3.88;;;9.00;99.90;;;;;;5060096;28;20200;-50
2022/02/24 07:49:59;;;;;;;6.50;2.50;;;9.30;99.90;;;;;;5060467;28;20225;-49
2022/02/24 07:52:27;;;;;;;6.55;3.50;;;9.60;99.90;;;;;;5060082;28;20284;-47
2022/02/24 07:54:54;;;;;;;12.20;5.22;;;10.00;99.90;;;;;;5060155;28;20230;-46
2022/02/24 07:57:22;;;;;;;7.68;4.05;;;10.90;99.90;;;;;;5061112;28;20219;-48
2022/02/24 07:59:50;;;;;;;8.80;4.18;;;11.80;99.90;;;;;;5060012;28;20196;-52
2022/02/24 08:02:17;;;;;;;7.78;5.45;;;12.90;99.90;;;;;;5060416;28;20542;-48
2022/02/24 08:04:45;;;;;;;7.25;4.60;;;13.40;99.90;;;;;;5059764;28;20234;-48
2022/02/24 08:07:13;;;;;;;7.57;4.55;;;13.70;99.90;;;;;;5060720;28;20219;-48
2022/02/24 08:09:40;;;;;;;4.72;3.53;;;13.30;99.90;;;;;;5059934;28;20200;-45
2022/02/24 08:14:53;;;;;;;18.75;6.40;;;13.00;99.90;;;;;;5060067;28;20219;-48
2022/02/24 08:17:23;;;;;;;10.40;6.22;;;13.00;99.90;;;;;;5060029;28;20202;-46
2022/02/24 08:19:50;;;;;;;12.75;4.45;;;13.40;99.90;;;;;;5059811;28;20390;-48
2022/02/24 08:22:18;;;;;;;8.85;5.20;;;13.30;99.90;;;;;;5060112;28;20542;-51
2022/02/24 08:24:45;;;;;;;9.27;5.32;;;12.90;99.90;;;;;;5061129;28;20609;-46
2022/02/24 08:27:13;;;;;;;5.82;4.95;;;13.40;99.90;;;;;;5061293;28;20289;-46
2022/02/24 08:29:40;;;;;;;7.20;4.13;;;14.00;99.90;;;;;;5058611;28;20201;-48
2022/02/24 08:32:07;;;;;;;13.43;5.10;;;13.50;99.90;;;;;;5059438;28;20226;-46
2022/02/24 08:34:35;;;;;;;6.88;4.18;;;13.00;99.90;;;;;;5059471;28;20219;-50
2022/02/24 08:37:02;;;;;;;7.95;4.47;;;13.40;99.90;;;;;;5060138;28;20199;-46
2022/02/24 08:39:29;;;;;;;6.57;4.05;;;14.80;99.90;;;;;;5059554;28;20199;-47
2022/02/24 08:41:56;;;;;;;4.85;4.40;;;14.80;99.00;;;;;;5059359;28;20243;-56
2022/02/24 08:44:26;;;;;;;10.73;5.87;;;14.90;99.40;;;;;;5059317;28;20208;-49
2022/02/24 08:46:54;;;;;;;7.85;4.35;;;14.70;99.70;;;;;;5060015;28;20457;-51
2022/02/24 08:49:21;;;;;;;11.63;5.88;;;14.50;99.40;;;;;;5059226;28;20202;-53
2022/02/24 08:51:48;;;;;;;7.80;4.18;;;14.80;98.40;;;;;;5059527;28;20414;-50
2022/02/24 08:54:16;;;;;;;10.20;7.00;;;14.80;98.50;;;;;;5059314;28;20405;-51
2022/02/24 08:56:46;;;;;;;9.87;5.53;;;14.50;99.00;;;;;;5059345;28;20601;-52
2022/02/24 08:59:13;;;;;;;8.43;3.53;;;14.40;99.70;;;;;;5059950;28;20430;-49
2022/02/24 09:01:41;;;;;;;7.93;4.03;;;14.20;99.30;;;;;;5063690;28;20270;-51
2022/02/24 09:04:08;;;;;;;5.32;3.35;;;13.50;99.60;;;;;;5061553;28;20493;-45
2022/02/24 09:06:35;;;;;;;4.70;4.07;;;13.80;99.90;;;;;;5059304;28;20214;-46
2022/02/24 09:09:02;;;;;;;8.35;4.00;;;13.30;99.90;;;;;;5059733;28;20203;-50
2022/02/24 09:11:29;;;;;;;7.03;5.10;;;13.20;99.90;;;;;;5058727;28;20223;-50
2022/02/24 09:13:57;;;;;;;5.50;3.47;;;14.00;99.90;;;;;;5059237;28;20317;-46
2022/02/24 09:16:25;;;;;;;4.30;3.20;;;14.10;99.60;;;;;;5058797;28;20206;-45
2022/02/24 09:18:53;;;;;;;6.13;4.32;;;14.10;98.60;;;;;;5059153;28;20188;-46
2022/02/24 09:21:20;;;;;;;6.88;5.07;;;14.60;97.20;;;;;;5059165;28;20238;-46
2022/02/24 09:23:47;;;;;;;36.40;20.90;;;14.20;97.60;;;;;;5058695;28;20196;-46
2022/02/24 09:26:15;;;;;;;52.63;23.85;;;13.80;97.70;;;;;;5059715;28;20387;-45
2022/02/24 09:28:42;;;;;;;18.77;8.68;;;12.90;99.10;;;;;;5058882;28;20221;-51
2022/02/24 09:31:10;;;;;;;10.45;4.53;;;12.40;99.90;;;;;;5059184;28;20227;-51
2022/02/24 09:33:38;;;;;;;5.90;4.80;;;11.40;99.90;;;;;;5058783;28;20206;-51
2022/02/24 09:36:06;;;;;;;6.68;3.75;;;10.90;99.90;;;;;;5059228;28;20231;-44
2022/02/24 09:38:33;;;;;;;16.33;5.18;;;10.70;99.90;;;;;;5058682;28;20198;-49
2022/02/24 09:41:01;;;;;;;4.00;3.20;;;10.50;99.90;;;;;;5059102;28;20368;-47
2022/02/24 09:43:36;;;;;;;11.10;5.35;;;10.40;99.90;;;;;;5059235;28;20203;-46
2022/02/24 09:46:09;;;;;;;6.72;4.50;;;10.50;99.90;;;;;;5058894;28;20211;-46
2022/02/24 09:48:41;;;;;;;14.27;8.55;;;10.50;99.90;;;;;;5058882;28;20201;-50
2022/02/24 09:51:11;;;;;;;21.60;11.30;;;10.50;99.90;;;;;;5058531;28;20254;-46
2022/02/24 09:53:38;;;;;;;15.73;6.75;;;10.40;99.90;;;;;;5058816;28;20305;-46
2022/02/24 09:56:15;;;;;;;9.00;4.03;;;10.50;99.90;;;;;;5058784;28;20223;-44
2022/02/24 09:58:45;;;;;;;8.13;3.97;;;10.50;99.90;;;;;;5059090;28;20274;-44
2022/02/24 10:01:14;;;;;;;4.97;3.25;;;10.50;99.90;;;;;;5058719;28;20247;-51
2022/02/24 10:03:48;;;;;;;5.32;2.67;;;10.40;99.90;;;;;;5058979;28;20383;-47
2022/02/24 10:06:16;;;;;;;3.08;2.88;;;10.50;99.90;;;;;;5059434;28;20273;-49
2022/02/24 10:08:48;;;;;;;6.47;3.10;;;10.50;99.90;;;;;;5058883;28;20249;-45
2022/02/24 10:11:23;;;;;;;5.95;3.10;;;10.40;99.90;;;;;;5062549;28;20486;-49
2022/02/24 10:14:10;;;;;;;6.93;2.78;;;10.40;99.90;;;;;;5062124;28;20233;-45
2022/02/24 10:16:53;;;;;;;7.40;2.97;;;10.30;99.90;;;;;;5062366;28;20202;-48
2022/02/24 10:19:40;;;;;;;5.80;3.92;;;10.50;99.90;;;;;;5062336;28;20249;-46
2022/02/24 10:22:13;;;;;;;7.47;2.92;;;10.70;99.90;;;;;;5062397;28;20508;-50
2022/02/24 10:24:55;;;;;;;6.82;3.20;;;10.50;99.90;;;;;;5062842;28;20253;-47
2022/02/24 10:27:26;;;;;;;6.30;3.97;;;10.50;99.90;;;;;;5062834;28;20213;-45
2022/02/24 10:30:01;;;;;;;3.72;3.20;;;10.50;99.90;;;;;;5065062;28;20218;-46
2022/02/24 10:32:56;;;;;;;5.30;3.75;;;10.40;99.90;;;;;;5064817;28;20221;-51
2022/02/24 10:35:27;;;;;;;6.03;3.60;;;10.50;99.90;;;;;;5062328;28;20237;-44
2022/02/24 10:38:09;;;;;;;6.45;4.03;;;10.60;99.90;;;;;;5061822;28;20271;-48
2022/02/24 10:40:43;;;;;;;6.38;2.50;;;10.70;99.90;;;;;;5061340;28;20422;-49
2022/02/24 10:43:22;;;;;;;6.25;2.90;;;10.60;99.90;;;;;;5061881;28;20202;-47
2022/02/24 10:46:06;;;;;;;4.97;3.50;;;10.60;99.90;;;;;;5061425;28;20206;-46
2022/02/24 10:48:52;;;;;;;3.22;2.40;;;10.50;99.90;;;;;;5061710;28;20489;-52
2022/02/24 10:51:25;;;;;;;5.32;3.28;;;10.30;99.90;;;;;;5061239;28;20225;-45
2022/02/24 10:54:03;;;;;;;7.45;3.45;;;10.40;99.90;;;;;;5066727;28;20217;-50
2022/02/24 10:56:36;;;;;;;8.13;3.97;;;10.50;99.90;;;;;;5061785;28;20318;-51
2022/02/24 10:59:04;;;;;;;10.05;3.83;;;10.60;99.90;;;;;;5061994;28;20518;-50
2022/02/24 11:01:31;;;;;;;5.22;4.20;;;10.30;99.90;;;;;;5061140;28;20304;-54
2022/02/24 11:04:01;;;;;;;6.53;4.65;;;10.20;99.90;;;;;;5061147;28;20198;-51
2022/02/24 11:06:33;;;;;;;13.07;4.88;;;10.10;99.90;;;;;;5061406;28;20228;-48
2022/02/24 11:09:02;;;;;;;8.48;3.50;;;10.10;99.90;;;;;;5061341;28;20546;-46
2022/02/24 11:11:31;;;;;;;5.32;3.08;;;10.20;99.90;;;;;;5061077;28;20230;-49
2022/02/24 11:14:00;;;;;;;4.88;3.75;;;10.00;99.90;;;;;;5060885;28;20203;-48
2022/02/24 11:16:29;;;;;;;7.97;4.05;;;9.70;99.90;;;;;;5060700;28;20225;-45
2022/02/24 11:18:59;;;;;;;4.72;4.00;;;9.70;99.90;;;;;;5060897;28;20221;-49
2022/02/24 11:21:28;;;;;;;5.30;4.13;;;9.90;99.90;;;;;;5060296;28;20551;-51
2022/02/24 11:23:56;;;;;;;6.47;3.03;;;9.90;99.90;;;;;;5060458;28;20246;-46
2022/02/24 11:26:33;;;;;;;5.55;4.28;;;10.00;99.90;;;;;;5061357;28;20293;-45
2022/02/24 11:29:18;;;;;;;4.88;3.70;;;10.30;99.90;;;;;;5061081;28;20264;-47
2022/02/24 11:31:53;;;;;;;7.07;3.40;;;10.50;99.90;;;;;;5060746;28;20223;-48
2022/02/24 11:34:59;;;;;;;7.10;4.15;;;10.50;99.90;;;;;;5061233;28;20211;-47
2022/02/24 11:37:31;;;;;;;8.40;3.70;;;10.60;99.90;;;;;;5060852;28;20206;-45
2022/02/24 11:40:02;;;;;;;5.75;3.60;;;10.90;99.90;;;;;;5066498;28;20210;-51
2022/02/24 11:42:32;;;;;;;6.07;3.42;;;10.90;99.90;;;;;;5069081;28;20219;-58
2022/02/24 11:45:00;;;;;;;8.00;3.45;;;11.00;99.90;;;;;;5071208;28;20194;-48
2022/02/24 11:47:28;;;;;;;5.13;4.60;;;11.00;99.90;;;;;;5063075;28;20207;-52
2022/02/24 11:49:59;;;;;;;10.27;3.88;;;11.10;99.90;;;;;;5062324;28;20425;-47
2022/02/24 11:52:30;;;;;;;6.35;3.58;;;11.10;99.90;;;;;;5060344;28;20254;-49
2022/02/24 11:54:59;;;;;;;8.75;4.10;;;11.20;99.90;;;;;;5060331;28;20562;-49
2022/02/24 11:57:36;;;;;;;4.40;3.95;;;11.20;99.90;;;;;;5059404;28;20472;-49
2022/02/24 12:00:17;;;;;;;4.20;3.15;;;11.40;99.90;;;;;;5060012;28;20519;-48
2022/02/24 12:02:47;;;;;;;6.78;4.70;;;11.20;99.90;;;;;;5059681;28;20203;-50
2022/02/24 12:05:27;;;;;;;7.88;4.28;;;11.10;99.90;;;;;;5060049;28;20527;-53
2022/02/24 12:08:12;;;;;;;5.97;4.07;;;10.80;99.90;;;;;;5059890;28;20201;-45
2022/02/24 12:10:46;;;;;;;7.78;4.47;;;10.90;99.90;;;;;;5059886;28;20297;-53
2022/02/24 12:13:25;;;;;;;9.25;4.15;;;10.90;99.90;;;;;;5060141;28;20206;-50
2022/02/24 12:16:20;;;;;;;9.18;4.10;;;11.00;99.90;;;;;;5059348;28;20520;-47
2022/02/24 12:18:49;;;;;;;4.57;3.65;;;11.00;99.90;;;;;;5053897;28;20245;-50
2022/02/24 12:21:37;;;;;;;9.68;3.60;;;10.90;99.90;;;;;;5060910;28;20219;-50
2022/02/24 12:24:14;;;;;;;8.73;3.75;;;10.80;99.90;;;;;;5063359;28;20261;-50
2022/02/24 12:26:47;;;;;;;3.00;2.45;;;10.80;99.90;;;;;;5060625;28;20265;-49
2022/02/24 12:29:29;;;;;;;2.47;2.25;;;10.80;99.90;;;;;;5059590;28;20438;-46
2022/02/24 12:31:59;;;;;;;3.08;2.30;;;11.00;99.90;;;;;;5059493;28;20611;-47
2022/02/24 12:34:28;;;;;;;7.00;3.60;;;11.20;99.90;;;;;;5058901;28;20240;-51
2022/02/24 12:37:10;;;;;;;3.70;2.83;;;11.40;99.90;;;;;;5058849;28;20222;-47
2022/02/24 12:39:38;;;;;;;3.60;2.67;;;11.50;99.90;;;;;;5059748;28;20227;-50
2022/02/24 12:42:11;;;;;;;5.65;3.08;;;11.50;99.90;;;;;;5059508;28;20686;-51
2022/02/24 12:44:40;;;;;;;5.70;3.33;;;11.60;99.90;;;;;;5059732;28;20204;-48
2022/02/24 12:47:08;;;;;;;4.63;3.08;;;11.60;99.90;;;;;;5059750;28;20495;-47
2022/02/24 12:49:47;;;;;;;4.03;2.63;;;11.60;99.90;;;;;;5059375;28;20203;-47
2022/02/24 12:52:19;;;;;;;5.97;2.65;;;11.60;99.90;;;;;;5059478;28;20226;-48
2022/02/24 12:54:47;;;;;;;4.22;2.80;;;11.70;99.90;;;;;;5058969;28;20202;-51
2022/02/24 12:57:14;;;;;;;6.55;3.05;;;11.60;99.90;;;;;;5059009;28;20234;-48
2022/02/24 12:59:43;;;;;;;8.90;3.55;;;11.50;99.90;;;;;;5058687;28;20199;-46